Time;durP1;ratioP1;P1;durP2;ratioP2;P2;SDS_P1;SDS_P2;PMS_P1;PMS_P2;Temp;Humidity;BMP_temperature;BMP_pressure;BME280_temperature;BME280_humidity;BME280_pressure;Samples;Min_cycle;Max_cycle;Signal;HPM_P1;HPM_P2
2023/04/08 00:00:42;;;;;;;17.97;11.50;;;10.40;99.90;;;;;;4942000;29;20297;-79
2023/04/08 00:03:07;;;;;;;24.67;12.50;;;10.40;99.90;;;;;;4938210;29;20751;-82
2023/04/08 00:05:33;;;;;;;21.40;12.53;;;10.40;99.90;;;;;;4933047;29;20442;-81
2023/04/08 00:07:59;;;;;;;20.20;12.47;;;10.40;96.30;;;;;;4927644;29;20214;-82
2023/04/08 00:10:25;;;;;;;18.40;10.33;;;10.40;13.40;;;;;;4942419;29;20687;-85
2023/04/08 00:12:50;;;;;;;17.30;11.37;;;10.40;1.00;;;;;;4934772;29;20185;-81
2023/04/08 00:15:16;;;;;;;16.90;11.07;;;10.40;1.00;;;;;;4933430;29;20441;-81
2023/04/08 00:17:41;;;;;;;20.47;10.37;;;10.30;1.00;;;;;;4931547;29;20213;-80
2023/04/08 00:20:07;;;;;;;15.50;12.17;;;10.30;1.00;;;;;;4933928;29;20204;-82
2023/04/08 00:22:34;;;;;;;16.50;12.33;;;10.30;99.90;;;;;;4950983;28;20274;-81
2023/04/08 00:25:00;;;;;;;21.53;14.23;;;10.30;99.90;;;;;;4930374;29;20437;-80
2023/04/08 00:27:26;;;;;;;22.07;14.07;;;10.30;99.90;;;;;;4929222;29;20795;-80
2023/04/08 00:29:51;;;;;;;20.33;14.20;;;10.30;99.90;;;;;;4928755;29;20434;-81
2023/04/08 00:32:17;;;;;;;24.17;15.27;;;10.30;99.90;;;;;;4927687;29;20725;-80
2023/04/08 00:34:42;;;;;;;21.60;15.40;;;10.30;99.90;;;;;;4928818;29;20572;-80
2023/04/08 00:37:08;;;;;;;24.90;15.80;;;10.30;99.90;;;;;;4926508;29;20210;-80
2023/04/08 00:39:34;;;;;;;24.60;16.70;;;10.30;99.90;;;;;;4921741;29;20264;-81
2023/04/08 00:42:00;;;;;;;24.70;15.93;;;10.20;99.90;;;;;;4929882;29;20650;-81
2023/04/08 00:44:26;;;;;;;27.40;16.47;;;10.20;99.90;;;;;;4940078;29;20186;-83
2023/04/08 00:46:52;;;;;;;26.43;17.40;;;10.20;99.90;;;;;;4933289;29;20439;-81
2023/04/08 00:49:17;;;;;;;30.00;17.53;;;10.20;99.90;;;;;;4926231;29;21004;-81
2023/04/08 00:51:43;;;;;;;24.37;15.80;;;10.20;99.90;;;;;;4922957;29;20209;-80
2023/04/08 00:54:09;;;;;;;25.10;17.47;;;10.20;99.90;;;;;;4929544;29;20205;-81
2023/04/08 00:56:35;;;;;;;26.03;17.30;;;10.20;1.00;;;;;;4937147;29;20197;-81
2023/04/08 00:59:01;;;;;;;28.53;16.13;;;10.20;1.00;;;;;;4936819;29;20208;-81
2023/04/08 01:01:36;;;;;;;28.43;17.13;;;10.20;1.00;;;;;;4932712;29;20839;-82
2023/04/08 01:04:23;;;;;;;26.40;18.13;;;10.20;1.00;;;;;;4931995;29;20984;-82
2023/04/08 01:07:13;;;;;;;24.67;15.63;;;10.20;1.00;;;;;;4935881;29;20442;-81
2023/04/08 01:09:45;;;;;;;27.30;17.70;;;10.20;1.00;;;;;;4934841;29;20494;-81
2023/04/08 01:12:17;;;;;;;24.43;17.00;;;10.20;1.00;;;;;;4939289;29;20433;-81
2023/04/08 01:14:45;;;;;;;28.53;16.63;;;10.20;1.00;;;;;;4926959;29;20528;-81
2023/04/08 01:17:11;;;;;;;23.23;16.10;;;10.20;1.00;;;;;;4934363;29;20449;-81
2023/04/08 01:19:39;;;;;;;29.83;17.00;;;10.20;1.00;;;;;;4938721;29;20465;-81
2023/04/08 01:22:16;;;;;;;30.43;17.20;;;10.20;1.00;;;;;;4934515;29;20200;-83
2023/04/08 01:24:44;;;;;;;29.70;16.90;;;10.20;1.00;;;;;;4928542;29;20969;-81
2023/04/08 01:27:11;;;;;;;29.07;16.83;;;10.10;1.00;;;;;;4936327;29;20456;-81
2023/04/08 01:29:37;;;;;;;26.10;17.30;;;10.10;1.00;;;;;;4938289;29;20547;-81
2023/04/08 01:32:04;;;;;;;27.10;18.52;;;10.10;1.00;;;;;;4936689;29;20452;-81
2023/04/08 01:34:31;;;;;;;25.15;16.10;;;10.10;9.10;;;;;;4937125;28;20222;-81
2023/04/08 01:36:57;;;;;;;26.83;17.23;;;10.10;73.80;;;;;;4924977;29;20799;-82
2023/04/08 01:39:25;;;;;;;30.87;18.97;;;10.10;91.80;;;;;;4934260;29;20547;-82
2023/04/08 01:41:53;;;;;;;23.23;16.23;;;10.10;85.20;;;;;;4936670;29;20429;-81
2023/04/08 01:44:21;;;;;;;24.83;17.10;;;10.10;99.90;;;;;;4930012;29;20457;-81
2023/04/08 01:46:47;;;;;;;38.00;18.63;;;10.10;95.60;;;;;;4927664;29;20453;-81
2023/04/08 01:49:15;;;;;;;28.77;17.33;;;10.10;90.00;;;;;;4939158;29;20544;-81
2023/04/08 01:51:43;;;;;;;34.43;17.80;;;10.20;54.70;;;;;;4943150;29;20544;-81
2023/04/08 01:54:09;;;;;;;31.10;17.70;;;10.20;21.20;;;;;;4933866;29;20469;-81
2023/04/08 01:56:40;;;;;;;36.07;19.43;;;10.20;12.40;;;;;;4935355;29;20438;-83
2023/04/08 01:59:10;;;;;;;33.20;18.50;;;10.20;7.20;;;;;;4940965;29;20215;-82
2023/04/08 02:01:36;;;;;;;26.53;16.90;;;10.20;14.30;;;;;;4936311;29;20477;-82
2023/04/08 02:04:02;;;;;;;30.03;17.47;;;10.10;1.00;;;;;;4943296;29;20446;-81
2023/04/08 02:06:30;;;;;;;27.80;16.80;;;10.10;1.00;;;;;;4942179;29;20449;-81
2023/04/08 02:08:55;;;;;;;28.13;17.30;;;10.10;54.30;;;;;;4941796;29;20853;-81
2023/04/08 02:11:21;;;;;;;31.63;18.00;;;10.10;96.70;;;;;;4941692;29;20437;-82
2023/04/08 02:13:47;;;;;;;24.70;17.43;;;10.10;93.00;;;;;;4942815;29;20637;-82
2023/04/08 02:16:41;;;;;;;27.85;18.23;;;10.10;99.90;;;;;;4942728;29;20190;-83
2023/04/08 02:19:13;;;;;;;30.25;17.00;;;10.10;99.90;;;;;;4935720;29;20225;-82
2023/04/08 02:21:54;;;;;;;31.50;18.30;;;10.10;99.90;;;;;;4942545;29;20561;-82
2023/04/08 02:24:20;;;;;;;27.80;18.30;;;10.10;99.90;;;;;;4935984;29;20448;-82
2023/04/08 02:26:49;;;;;;;31.07;18.63;;;10.10;99.90;;;;;;4945301;29;20434;-83
2023/04/08 02:29:16;;;;;;;27.07;17.37;;;10.10;99.90;;;;;;4941650;29;20956;-82
2023/04/08 02:31:42;;;;;;;28.40;17.17;;;10.10;99.90;;;;;;4950417;29;20448;-83
2023/04/08 02:34:10;;;;;;;25.70;18.20;;;10.10;99.90;;;;;;4935657;29;20465;-83
2023/04/08 02:36:36;;;;;;;31.97;19.23;;;10.10;99.90;;;;;;4965137;28;20434;-83
2023/04/08 02:39:02;;;;;;;30.17;16.87;;;10.10;99.90;;;;;;4943153;29;20485;-83
2023/04/08 02:41:29;;;;;;;31.73;18.70;;;10.10;99.90;;;;;;4944199;29;20536;-83
2023/04/08 02:43:55;;;;;;;33.70;18.70;;;10.10;99.90;;;;;;4932877;29;20470;-82
2023/04/08 02:46:20;;;;;;;32.70;18.30;;;10.10;99.90;;;;;;4958324;28;20446;-82
2023/04/08 02:48:46;;;;;;;30.80;18.27;;;10.00;99.90;;;;;;4943105;29;20221;-82
2023/04/08 02:51:12;;;;;;;33.50;19.97;;;10.00;99.90;;;;;;4939602;29;20192;-81
2023/04/08 02:53:37;;;;;;;25.57;18.43;;;10.00;99.90;;;;;;4937462;29;20214;-82
2023/04/08 02:56:03;;;;;;;28.87;18.47;;;10.00;1.00;;;;;;4935585;29;20186;-82
2023/04/08 02:58:29;;;;;;;34.30;18.73;;;9.90;1.00;;;;;;4936308;29;20213;-81
2023/04/08 03:00:55;;;;;;;33.60;19.00;;;9.90;1.00;;;;;;4946254;29;20221;-82
2023/04/08 03:03:26;;;;;;;28.43;18.20;;;9.90;1.00;;;;;;4939661;29;20469;-81
2023/04/08 03:05:52;;;;;;;29.90;18.90;;;9.90;1.00;;;;;;4932938;29;20194;-82
2023/04/08 03:08:18;;;;;;;32.10;20.10;;;9.90;1.00;;;;;;4935585;29;20272;-82
2023/04/08 03:10:44;;;;;;;29.20;17.90;;;9.90;1.00;;;;;;4942929;29;20551;-82
2023/04/08 03:13:09;;;;;;;26.67;19.10;;;9.90;1.00;;;;;;4942853;29;20260;-83
2023/04/08 03:15:35;;;;;;;31.27;18.63;;;9.90;1.00;;;;;;4936693;29;20714;-81
2023/04/08 03:18:00;;;;;;;26.33;18.43;;;9.90;1.00;;;;;;4945283;28;20694;-82
2023/04/08 03:20:26;;;;;;;31.70;18.90;;;9.80;1.00;;;;;;4945058;28;20672;-81
2023/04/08 03:22:51;;;;;;;43.83;20.73;;;9.90;24.40;;;;;;4941596;29;20768;-82
2023/04/08 03:25:17;;;;;;;30.30;19.47;;;9.80;44.40;;;;;;4942493;29;20178;-83
2023/04/08 03:27:42;;;;;;;36.97;21.20;;;9.90;53.70;;;;;;4932197;29;20237;-83
2023/04/08 03:30:08;;;;;;;30.77;21.00;;;9.90;95.60;;;;;;4935786;29;20182;-83
2023/04/08 03:32:34;;;;;;;37.20;20.90;;;9.80;99.90;;;;;;4941148;29;20182;-82
2023/04/08 03:34:59;;;;;;;35.10;19.83;;;9.80;99.90;;;;;;4938285;29;20488;-82
2023/04/08 03:37:25;;;;;;;38.93;21.97;;;9.80;99.90;;;;;;4934721;29;20181;-83
2023/04/08 03:39:50;;;;;;;29.00;19.43;;;9.80;99.90;;;;;;4936351;29;20452;-81
2023/04/08 03:42:16;;;;;;;31.50;20.50;;;9.80;99.90;;;;;;4940873;29;20204;-81
2023/04/08 03:44:42;;;;;;;30.20;20.30;;;9.80;99.90;;;;;;4952155;28;20213;-82
2023/04/08 03:47:07;;;;;;;34.87;20.80;;;9.80;99.90;;;;;;4933796;29;20437;-81
2023/04/08 03:49:33;;;;;;;35.10;20.67;;;9.90;99.90;;;;;;4928087;29;20210;-81
2023/04/08 03:51:59;;;;;;;31.90;19.83;;;9.90;99.90;;;;;;4934386;29;20204;-82
2023/04/08 03:54:24;;;;;;;34.10;18.70;;;9.90;99.90;;;;;;4938968;28;20712;-82
2023/04/08 03:56:50;;;;;;;39.73;21.37;;;9.90;99.90;;;;;;4936632;29;20204;-81
2023/04/08 03:59:15;;;;;;;38.77;21.60;;;9.90;99.90;;;;;;4930394;29;20448;-82
2023/04/08 04:01:41;;;;;;;37.83;20.53;;;9.90;99.90;;;;;;4939132;29;20199;-81
2023/04/08 04:04:06;;;;;;;33.47;19.73;;;9.90;99.90;;;;;;4933825;29;20197;-81
2023/04/08 04:06:32;;;;;;;35.60;19.80;;;9.90;99.90;;;;;;4937415;29;20188;-82
2023/04/08 04:08:57;;;;;;;39.00;20.13;;;9.90;99.90;;;;;;4939157;29;20213;-82
2023/04/08 04:11:23;;;;;;;36.67;19.80;;;9.90;99.90;;;;;;4933903;29;20270;-82
2023/04/08 04:13:48;;;;;;;33.57;19.27;;;10.00;99.90;;;;;;4929238;29;20220;-81
2023/04/08 04:16:14;;;;;;;39.13;20.90;;;10.00;99.90;;;;;;4953694;28;20193;-80
2023/04/08 04:18:39;;;;;;;39.43;22.30;;;10.00;99.90;;;;;;4933293;29;20213;-82
2023/04/08 04:21:06;;;;;;;35.00;20.27;;;10.00;99.90;;;;;;4934455;29;20182;-81
2023/04/08 04:23:31;;;;;;;38.17;21.60;;;9.90;99.90;;;;;;4926297;29;20201;-83
2023/04/08 04:25:57;;;;;;;31.03;20.07;;;9.90;99.90;;;;;;4935923;29;20445;-81
2023/04/08 04:28:22;;;;;;;36.93;23.03;;;9.90;99.90;;;;;;4937030;29;20297;-81
2023/04/08 04:30:48;;;;;;;42.20;24.03;;;9.90;99.90;;;;;;4937515;29;20720;-82
2023/04/08 04:33:13;;;;;;;39.77;23.40;;;9.90;99.90;;;;;;4935533;29;20245;-81
2023/04/08 04:35:39;;;;;;;44.80;23.27;;;9.90;99.90;;;;;;4924926;29;20225;-81
2023/04/08 04:38:09;;;;;;;40.33;23.80;;;9.90;99.90;;;;;;4935937;29;20701;-82
2023/04/08 04:40:35;;;;;;;45.77;23.60;;;9.90;99.90;;;;;;4934173;29;20442;-81
2023/04/08 04:43:01;;;;;;;44.30;24.43;;;9.90;99.90;;;;;;4934837;29;20446;-82
2023/04/08 04:45:26;;;;;;;46.30;22.50;;;9.90;99.90;;;;;;4932811;29;20440;-81
2023/04/08 04:47:52;;;;;;;43.80;23.53;;;9.90;99.90;;;;;;4935385;29;20209;-81
2023/04/08 04:50:17;;;;;;;43.50;22.90;;;10.00;99.90;;;;;;4934735;29;20186;-81
2023/04/08 04:52:43;;;;;;;49.03;23.83;;;10.00;99.90;;;;;;4932164;29;20194;-83
2023/04/08 04:55:09;;;;;;;49.07;25.07;;;9.90;99.90;;;;;;4938475;29;20208;-81
2023/04/08 04:57:35;;;;;;;48.10;24.90;;;10.00;99.90;;;;;;4937218;29;20189;-82
2023/04/08 05:00:00;;;;;;;42.50;24.10;;;10.00;99.90;;;;;;4939374;29;20992;-81
2023/04/08 05:02:26;;;;;;;46.77;23.90;;;10.00;99.90;;;;;;4937001;29;20532;-82
2023/04/08 05:04:54;;;;;;;42.40;24.30;;;10.00;99.90;;;;;;4938395;29;20196;-82
2023/04/08 05:07:21;;;;;;;40.37;24.77;;;10.00;99.90;;;;;;4927930;29;20186;-82
2023/04/08 05:09:46;;;;;;;43.10;24.00;;;10.00;99.90;;;;;;4932615;29;20552;-82
2023/04/08 05:12:12;;;;;;;48.53;23.00;;;10.00;99.90;;;;;;4937044;29;20479;-82
2023/04/08 05:14:38;;;;;;;45.53;24.33;;;10.00;99.90;;;;;;4935942;29;20205;-82
2023/04/08 05:17:04;;;;;;;40.97;23.50;;;10.00;99.90;;;;;;4929403;28;20183;-82
2023/04/08 05:19:30;;;;;;;43.73;23.53;;;10.00;99.90;;;;;;4928978;29;20490;-81
2023/04/08 05:21:55;;;;;;;35.93;22.40;;;10.00;99.90;;;;;;4934580;29;20448;-81
2023/04/08 05:24:21;;;;;;;44.70;22.60;;;10.00;99.90;;;;;;4938563;29;20189;-82
2023/04/08 05:26:51;;;;;;;40.40;22.10;;;10.10;99.90;;;;;;4940278;29;20181;-82
2023/04/08 05:29:17;;;;;;;37.65;21.83;;;10.10;99.90;;;;;;4938637;29;20343;-83
2023/04/08 05:31:43;;;;;;;34.00;22.37;;;10.10;99.90;;;;;;4937751;29;20658;-81
2023/04/08 05:34:10;;;;;;;39.83;22.50;;;10.10;99.90;;;;;;4940429;29;20509;-82
2023/04/08 05:36:35;;;;;;;49.93;25.30;;;10.20;99.90;;;;;;4939525;29;20527;-83
2023/04/08 05:39:01;;;;;;;47.50;26.77;;;10.20;99.90;;;;;;4938471;29;20457;-82
2023/04/08 05:41:26;;;;;;;52.20;28.10;;;10.20;99.90;;;;;;4941147;29;20193;-81
2023/04/08 05:43:52;;;;;;;59.03;35.87;;;10.30;99.90;;;;;;4940829;29;20204;-82
2023/04/08 05:46:17;;;;;;;59.80;35.73;;;10.30;99.90;;;;;;4945481;29;20202;-83
2023/04/08 05:48:43;;;;;;;88.97;50.77;;;10.40;99.90;;;;;;4941941;29;20230;-82
2023/04/08 05:51:17;;;;;;;81.63;48.93;;;10.40;99.90;;;;;;4944682;29;20230;-83
2023/04/08 05:53:45;;;;;;;74.70;39.70;;;10.50;99.90;;;;;;4948625;29;20208;-83
2023/04/08 05:56:11;;;;;;;60.40;33.27;;;10.60;99.90;;;;;;4950775;29;20440;-83
2023/04/08 05:58:36;;;;;;;60.07;36.67;;;10.60;99.90;;;;;;4942988;29;20457;-81
2023/04/08 06:01:02;;;;;;;85.93;51.57;;;10.60;99.90;;;;;;4951756;29;20202;-82
2023/04/08 06:03:29;;;;;;;81.23;50.27;;;10.70;99.90;;;;;;4941924;29;20600;-82
2023/04/08 06:05:55;;;;;;;62.27;39.43;;;10.80;99.90;;;;;;4937784;29;20463;-83
2023/04/08 06:08:21;;;;;;;52.73;30.90;;;10.90;99.90;;;;;;4943788;29;20461;-82
2023/04/08 06:10:50;;;;;;;53.37;29.57;;;11.00;95.80;;;;;;4942499;29;20189;-83
2023/04/08 06:13:16;;;;;;;49.57;30.63;;;11.10;46.70;;;;;;4938842;29;20464;-82
2023/04/08 06:15:42;;;;;;;53.97;29.43;;;11.20;1.00;;;;;;4945128;29;20438;-82
2023/04/08 06:18:07;;;;;;;55.33;30.53;;;11.30;1.00;;;;;;4950109;29;20465;-82
2023/04/08 06:20:34;;;;;;;52.67;29.80;;;11.50;1.00;;;;;;4945148;29;20245;-83
2023/04/08 06:23:00;;;;;;;50.47;31.13;;;11.60;99.90;;;;;;4936578;29;20193;-83
2023/04/08 06:25:25;;;;;;;47.97;29.57;;;11.60;99.90;;;;;;4941641;29;20456;-83
2023/04/08 06:27:51;;;;;;;57.43;33.73;;;11.70;1.00;;;;;;4938135;29;20280;-83
2023/04/08 06:30:16;;;;;;;53.40;31.43;;;11.80;1.00;;;;;;4947319;29;20196;-83
2023/04/08 06:32:42;;;;;;;56.83;32.33;;;11.90;99.90;;;;;;4943160;29;20572;-82
2023/04/08 06:35:07;;;;;;;54.67;33.53;;;12.10;99.90;;;;;;4950065;29;20277;-83
2023/04/08 06:37:37;;;;;;;56.93;33.97;;;12.40;99.90;;;;;;4934380;29;20269;-83
2023/04/08 06:40:05;;;;;;;56.40;33.50;;;12.60;1.00;;;;;;4945645;29;20174;-83
2023/04/08 06:42:31;;;;;;;67.30;36.60;;;12.70;99.90;;;;;;4943956;29;20438;-83
2023/04/08 06:44:57;;;;;;;59.07;35.07;;;12.70;1.00;;;;;;4933857;29;20464;-82
2023/04/08 06:47:22;;;;;;;66.67;35.87;;;12.70;1.00;;;;;;4937219;29;20193;-81
2023/04/08 06:49:48;;;;;;;57.53;32.60;;;12.70;99.90;;;;;;4943259;29;20449;-82
2023/04/08 06:52:14;;;;;;;59.60;34.73;;;12.70;99.90;;;;;;4939559;29;20276;-82
2023/04/08 06:54:40;;;;;;;58.80;35.00;;;12.70;36.20;;;;;;4943428;29;20198;-83
2023/04/08 06:57:05;;;;;;;58.43;34.23;;;12.70;1.00;;;;;;4941436;29;20438;-83
2023/04/08 06:59:31;;;;;;;57.33;32.50;;;12.60;1.00;;;;;;4937259;29;20202;-83
2023/04/08 07:01:57;;;;;;;56.97;33.20;;;12.60;1.00;;;;;;4947510;29;20225;-83
2023/04/08 07:04:22;;;;;;;53.20;32.17;;;12.50;1.00;;;;;;4946088;29;20194;-82
2023/04/08 07:06:48;;;;;;;58.57;33.67;;;12.50;1.00;;;;;;4944422;29;20204;-82
2023/04/08 07:09:13;;;;;;;53.03;31.47;;;12.50;1.00;;;;;;4933279;29;20229;-83
2023/04/08 07:11:39;;;;;;;56.37;32.60;;;12.50;1.00;;;;;;4939390;29;20201;-83
2023/04/08 07:14:05;;;;;;;52.70;29.77;;;12.50;99.90;;;;;;4946633;29;20244;-83
2023/04/08 07:16:30;;;;;;;55.97;31.77;;;12.60;99.90;;;;;;4933731;29;20198;-81
2023/04/08 07:18:56;;;;;;;51.50;29.87;;;12.60;99.90;;;;;;4936147;29;20220;-82
2023/04/08 07:21:22;;;;;;;48.27;28.43;;;12.60;99.90;;;;;;4929185;29;20189;-82
2023/04/08 07:23:47;;;;;;;43.57;25.97;;;12.70;99.90;;;;;;4937617;29;20437;-83
2023/04/08 07:26:13;;;;;;;43.17;27.00;;;12.70;99.90;;;;;;4943554;29;20254;-83
2023/04/08 07:28:38;;;;;;;50.67;29.77;;;12.70;99.90;;;;;;4957096;28;20216;-81
2023/04/08 07:31:12;;;;;;;54.27;31.93;;;12.70;99.90;;;;;;4949175;29;20209;-82
2023/04/08 07:33:38;;;;;;;55.47;31.67;;;12.80;99.90;;;;;;4936294;29;20292;-81
2023/04/08 07:36:04;;;;;;;58.87;31.90;;;12.90;99.90;;;;;;4935454;29;20461;-82
2023/04/08 07:38:29;;;;;;;52.53;30.50;;;12.90;99.90;;;;;;4935026;29;20216;-82
2023/04/08 07:40:55;;;;;;;52.63;31.30;;;13.10;1.00;;;;;;4938338;29;20228;-82
2023/04/08 07:43:20;;;;;;;55.17;31.80;;;13.40;1.00;;;;;;4944725;29;20281;-82
2023/04/08 07:45:46;;;;;;;54.43;31.00;;;13.80;1.00;;;;;;4939892;29;20197;-83
2023/04/08 07:48:11;;;;;;;53.70;32.00;;;13.90;99.90;;;;;;4935853;29;20215;-83
2023/04/08 07:50:37;;;;;;;46.33;28.00;;;13.90;99.90;;;;;;4941553;29;20217;-83
2023/04/08 07:53:02;;;;;;;42.40;28.90;;;13.90;99.90;;;;;;4946839;29;20250;-83
2023/04/08 07:55:33;;;;;;;49.80;31.50;;;14.00;48.20;;;;;;4942540;29;20230;-83
2023/04/08 07:57:58;;;;;;;53.63;32.40;;;14.20;1.00;;;;;;4945347;29;20208;-83
2023/04/08 08:00:24;;;;;;;59.33;35.23;;;14.20;1.00;;;;;;4945704;29;20452;-82
2023/04/08 08:02:49;;;;;;;53.33;32.03;;;14.20;1.00;;;;;;4948771;29;20182;-83
2023/04/08 08:05:15;;;;;;;48.83;31.00;;;14.40;1.00;;;;;;4941655;29;20193;-81
2023/04/08 08:07:41;;;;;;;46.70;30.40;;;15.00;1.00;;;;;;4934701;29;20242;-82
2023/04/08 08:10:07;;;;;;;51.23;30.00;;;16.80;1.00;;;;;;4933485;29;20197;-82
2023/04/08 08:12:33;;;;;;;49.13;31.43;;;17.80;99.90;;;;;;4942056;29;20256;-82
2023/04/08 08:14:58;;;;;;;45.90;31.60;;;20.30;99.90;;;;;;4946637;29;20510;-83
2023/04/08 08:17:25;;;;;;;40.37;28.60;;;20.40;99.90;;;;;;4940889;29;20182;-82
2023/04/08 08:19:50;;;;;;;41.57;29.77;;;20.80;99.90;;;;;;4942831;29;20713;-82
2023/04/08 08:22:16;;;;;;;39.47;29.63;;;21.40;99.90;;;;;;4940369;29;20450;-82
2023/04/08 08:24:41;;;;;;;36.93;29.30;;;24.70;99.90;;;;;;4940982;29;20193;-83
2023/04/08 08:27:10;;;;;;;39.93;31.70;;;27.20;99.90;;;;;;4933710;29;20298;-82
2023/04/08 08:29:36;;;;;;;41.97;33.30;;;27.00;99.90;;;;;;4927420;29;20218;-82
2023/04/08 08:32:02;;;;;;;38.87;32.03;;;25.70;99.90;;;;;;4932920;29;20452;-82
2023/04/08 08:34:28;;;;;;;44.80;34.20;;;25.60;99.90;;;;;;4927541;29;21007;-82
2023/04/08 08:36:53;;;;;;;38.80;31.80;;;25.20;99.90;;;;;;4923160;29;20457;-81
2023/04/08 08:39:19;;;;;;;39.27;32.20;;;25.20;99.90;;;;;;4931263;29;20213;-82
2023/04/08 08:41:45;;;;;;;41.93;33.20;;;25.80;99.90;;;;;;4931870;29;20185;-82
2023/04/08 08:44:11;;;;;;;41.67;34.13;;;27.20;99.90;;;;;;4935734;29;20204;-83
2023/04/08 08:46:43;;;;;;;39.10;32.53;;;29.30;99.90;;;;;;4926922;29;20685;-83
2023/04/08 08:49:09;;;;;;;41.60;35.10;;;30.50;99.90;;;;;;4929905;29;20461;-81
2023/04/08 08:51:35;;;;;;;42.10;33.63;;;31.10;99.90;;;;;;4949435;29;20443;-81
2023/04/08 08:54:02;;;;;;;37.23;33.37;;;32.70;99.90;;;;;;4937999;29;20484;-80
2023/04/08 08:56:28;;;;;;;36.60;32.87;;;33.00;99.90;;;;;;4938003;29;20843;-79
2023/04/08 08:58:53;;;;;;;39.03;34.90;;;32.70;99.90;;;;;;4941591;29;20445;-82
2023/04/08 09:01:48;;;;;;;41.50;37.20;;;32.20;99.90;;;;;;4939898;29;20216;-80
2023/04/08 09:04:21;;;;;;;41.93;35.73;;;31.10;99.90;;;;;;4929790;29;20232;-80
2023/04/08 09:06:49;;;;;;;45.83;39.50;;;29.40;99.90;;;;;;4942004;29;20439;-82
2023/04/08 09:09:15;;;;;;;43.90;38.17;;;27.80;99.90;;;;;;4942026;29;20461;-82
2023/04/08 09:11:43;;;;;;;41.43;35.87;;;26.40;99.90;;;;;;4941161;29;20437;-83
2023/04/08 09:14:19;;;;;;;42.53;35.77;;;25.30;99.90;;;;;;4938441;29;20449;-82
2023/04/08 09:16:44;;;;;;;44.63;38.97;;;24.60;99.90;;;;;;4941708;29;20460;-82
2023/04/08 09:19:10;;;;;;;45.23;37.30;;;24.10;99.90;;;;;;4935437;29;20474;-82
2023/04/08 09:21:37;;;;;;;37.70;33.60;;;23.80;99.90;;;;;;4940345;29;20206;-80
2023/04/08 09:24:03;;;;;;;37.07;33.27;;;25.20;99.90;;;;;;4949364;29;21235;-81
2023/04/08 09:26:28;;;;;;;37.37;33.43;;;28.20;99.90;;;;;;4945170;29;20425;-81
2023/04/08 09:29:05;;;;;;;36.60;32.80;;;30.00;99.90;;;;;;4949531;29;20697;-82
2023/04/08 09:31:39;;;;;;;40.00;35.67;;;29.80;99.90;;;;;;4957502;28;20587;-81
2023/04/08 09:34:14;;;;;;;42.60;38.00;;;29.20;99.90;;;;;;4948837;29;20440;-81
2023/04/08 09:36:39;;;;;;;41.23;36.73;;;28.20;99.90;;;;;;4949018;29;20441;-81
2023/04/08 09:39:05;;;;;;;38.60;34.20;;;27.30;99.90;;;;;;4940132;29;20468;-82
2023/04/08 09:41:35;;;;;;;39.87;34.30;;;26.50;99.90;;;;;;4953923;28;20283;-83
2023/04/08 09:44:06;;;;;;;41.33;33.70;;;26.00;99.90;;;;;;4933275;29;20480;-81
2023/04/08 09:46:51;;;;;;;39.80;35.50;;;25.40;99.90;;;;;;4944814;29;20452;-83
2023/04/08 09:49:26;;;;;;;39.20;34.53;;;24.70;99.90;;;;;;4940952;29;20460;-82
2023/04/08 09:52:14;;;;;;;45.17;34.90;;;24.20;99.90;;;;;;4940550;29;20443;-79
2023/04/08 09:55:04;;;;;;;38.07;33.87;;;24.10;99.90;;;;;;4954353;28;20445;-80
2023/04/08 09:57:38;;;;;;;38.40;34.20;;;24.70;99.90;;;;;;4941181;29;20889;-81
2023/04/08 10:00:11;;;;;;;39.47;35.17;;;24.60;99.90;;;;;;4946476;29;20455;-80
2023/04/08 10:02:45;;;;;;;40.83;36.40;;;24.60;99.90;;;;;;4944270;29;20443;-80
2023/04/08 10:05:13;;;;;;;39.77;34.90;;;24.80;99.90;;;;;;4948604;29;20475;-80
2023/04/08 10:07:40;;;;;;;40.60;35.30;;;25.00;99.90;;;;;;4947069;29;20447;-79
2023/04/08 10:10:08;;;;;;;40.40;36.00;;;24.70;99.90;;;;;;4945020;29;20466;-80
2023/04/08 10:12:33;;;;;;;36.97;33.03;;;24.30;99.90;;;;;;4943635;29;20526;-80
2023/04/08 10:15:25;;;;;;;37.37;33.47;;;24.00;99.90;;;;;;4947649;29;20466;-80
2023/04/08 10:17:51;;;;;;;39.37;34.83;;;23.70;99.90;;;;;;4946293;29;20206;-79
2023/04/08 10:20:35;;;;;;;42.20;36.97;;;23.20;99.90;;;;;;4946898;29;20451;-80
2023/04/08 10:23:01;;;;;;;40.70;35.27;;;22.70;99.90;;;;;;4941353;29;20463;-80
2023/04/08 10:25:34;;;;;;;42.10;35.53;;;22.40;99.90;;;;;;4945080;29;20535;-83
2023/04/08 10:28:21;;;;;;;43.20;36.50;;;22.00;99.90;;;;;;4937609;29;20463;-83
2023/04/08 10:30:51;;;;;;;44.30;37.10;;;21.70;99.90;;;;;;4939647;29;20442;-82
2023/04/08 10:33:19;;;;;;;45.00;37.33;;;21.50;99.90;;;;;;4944334;29;20505;-82
2023/04/08 10:35:52;;;;;;;39.73;35.40;;;21.30;99.90;;;;;;4944086;29;20452;-82
2023/04/08 10:38:18;;;;;;;43.17;35.80;;;21.00;99.90;;;;;;4934688;29;20615;-82
2023/04/08 10:40:44;;;;;;;42.23;34.83;;;20.90;99.90;;;;;;4949781;29;20437;-81
2023/04/08 10:43:11;;;;;;;43.67;37.27;;;20.80;99.90;;;;;;4946073;29;20811;-81
2023/04/08 10:45:37;;;;;;;41.73;34.93;;;20.70;99.90;;;;;;4939470;29;20433;-82
2023/04/08 10:48:18;;;;;;;37.67;31.90;;;20.70;99.90;;;;;;4944176;29;20972;-82
2023/04/08 10:51:00;;;;;;;34.73;29.60;;;20.90;99.90;;;;;;4939211;29;20506;-81
2023/04/08 10:53:28;;;;;;;37.97;33.07;;;21.00;99.90;;;;;;4937247;29;20520;-81
2023/04/08 10:56:07;;;;;;;39.70;31.60;;;21.10;99.90;;;;;;4930241;29;20798;-81
2023/04/08 10:58:35;;;;;;;35.80;30.60;;;21.30;99.90;;;;;;4925935;29;20460;-81
2023/04/08 11:01:07;;;;;;;36.40;32.10;;;21.70;99.90;;;;;;4927981;29;20480;-81
2023/04/08 11:03:34;;;;;;;35.20;30.57;;;22.20;99.90;;;;;;4935500;29;20564;-81
2023/04/08 11:06:00;;;;;;;31.27;27.63;;;22.90;99.90;;;;;;4930602;29;20559;-81
2023/04/08 11:08:33;;;;;;;27.97;24.93;;;23.90;99.90;;;;;;4946442;28;20546;-82
2023/04/08 11:11:00;;;;;;;25.07;22.53;;;24.80;99.90;;;;;;4924353;29;20520;-81
2023/04/08 11:13:27;;;;;;;23.50;21.10;;;25.60;99.90;;;;;;4933878;29;20496;-81
2023/04/08 11:15:54;;;;;;;23.30;20.83;;;25.20;99.90;;;;;;4942300;29;20457;-79
2023/04/08 11:18:21;;;;;;;23.57;21.13;;;24.40;99.90;;;;;;4937408;29;20490;-80
2023/04/08 11:20:50;;;;;;;22.27;20.00;;;23.60;99.90;;;;;;4936969;29;20452;-80
2023/04/08 11:23:16;;;;;;;21.80;19.60;;;22.80;99.90;;;;;;4940468;29;20511;-80
2023/04/08 11:25:43;;;;;;;23.33;20.73;;;22.30;99.90;;;;;;4942630;29;20486;-82
2023/04/08 11:28:09;;;;;;;24.23;19.67;;;21.70;99.90;;;;;;4947980;29;20464;-80
2023/04/08 11:30:35;;;;;;;22.07;19.73;;;21.30;99.90;;;;;;4949058;29;20444;-79
2023/04/08 11:33:01;;;;;;;20.97;18.70;;;21.00;99.90;;;;;;4949142;29;20494;-80
2023/04/08 11:35:30;;;;;;;22.23;19.90;;;20.80;99.90;;;;;;4947333;29;20440;-80
2023/04/08 11:37:57;;;;;;;21.17;18.87;;;20.60;99.90;;;;;;4946212;29;20264;-79
2023/04/08 11:40:23;;;;;;;19.50;17.50;;;20.40;99.90;;;;;;4937898;29;20473;-79
2023/04/08 11:42:50;;;;;;;20.63;18.43;;;20.30;99.90;;;;;;4937892;29;20452;-80
2023/04/08 11:45:20;;;;;;;21.40;19.20;;;20.20;99.90;;;;;;4936395;29;20487;-80
2023/04/08 11:47:47;;;;;;;21.43;17.57;;;20.30;99.90;;;;;;4944797;29;20465;-79
2023/04/08 11:50:25;;;;;;;23.63;18.90;;;20.30;99.90;;;;;;4943857;29;20559;-81
2023/04/08 11:52:51;;;;;;;21.27;19.03;;;20.20;99.90;;;;;;4945311;29;20429;-79
2023/04/08 11:55:27;;;;;;;22.63;19.10;;;20.10;99.90;;;;;;4945008;29;20780;-79
2023/04/08 11:57:54;;;;;;;22.57;20.27;;;20.00;99.90;;;;;;4937609;29;20458;-81
2023/04/08 12:00:20;;;;;;;20.20;18.10;;;19.70;99.90;;;;;;4942978;29;20835;-80
2023/04/08 12:02:46;;;;;;;19.37;17.37;;;19.60;99.90;;;;;;4942288;29;20571;-79
2023/04/08 12:05:13;;;;;;;22.20;19.17;;;19.50;99.90;;;;;;4939587;29;20471;-80
2023/04/08 12:07:39;;;;;;;21.67;17.63;;;19.50;99.90;;;;;;4936236;29;20448;-80
2023/04/08 12:10:05;;;;;;;22.40;19.33;;;19.50;99.90;;;;;;4938419;29;20477;-80
2023/04/08 12:12:31;;;;;;;18.87;16.97;;;19.60;99.90;;;;;;4940216;29;20228;-80
2023/04/08 12:14:56;;;;;;;20.97;17.17;;;19.70;99.90;;;;;;4940530;29;20509;-80
2023/04/08 12:17:22;;;;;;;20.90;17.60;;;19.80;99.90;;;;;;4939926;29;20213;-79
2023/04/08 12:19:47;;;;;;;19.80;17.70;;;19.90;99.90;;;;;;4946472;29;20194;-81
2023/04/08 12:22:13;;;;;;;22.20;17.67;;;20.00;99.90;;;;;;4946345;29;20263;-80
2023/04/08 12:24:38;;;;;;;19.37;17.37;;;20.20;99.90;;;;;;4940589;29;20222;-80
2023/04/08 12:27:04;;;;;;;19.67;17.67;;;20.40;99.90;;;;;;4937353;29;20202;-81
2023/04/08 12:29:30;;;;;;;20.37;18.27;;;20.60;99.90;;;;;;4941279;29;20265;-80
2023/04/08 12:31:56;;;;;;;20.03;17.40;;;20.90;99.90;;;;;;4944545;29;20191;-80